sensor_id;sensor_type;location;lat;lon;timestamp;temperature;humidity
49222;DHT22;35047;37.588;-122.048;2023-06-10T00:00:49;32.60;41.70
49222;DHT22;35047;37.588;-122.048;2023-06-10T00:03:16;32.90;41.40
49222;DHT22;35047;37.588;-122.048;2023-06-10T00:05:43;33.00;40.80
49222;DHT22;35047;37.588;-122.048;2023-06-10T00:08:09;33.00;41.00
49222;DHT22;35047;37.588;-122.048;2023-06-10T00:10:36;33.10;40.80
49222;DHT22;35047;37.588;-122.048;2023-06-10T00:13:03;33.30;40.50
49222;DHT22;35047;37.588;-122.048;2023-06-10T00:15:30;33.20;40.30
49222;DHT22;35047;37.588;-122.048;2023-06-10T00:17:56;33.00;40.10
49222;DHT22;35047;37.588;-122.048;2023-06-10T00:20:23;33.00;40.10
49222;DHT22;35047;37.588;-122.048;2023-06-10T00:22:50;33.00;40.40
49222;DHT22;35047;37.588;-122.048;2023-06-10T00:25:16;33.00;40.40
49222;DHT22;35047;37.588;-122.048;2023-06-10T00:27:42;33.00;40.30
49222;DHT22;35047;37.588;-122.048;2023-06-10T00:30:09;33.20;40.30
49222;DHT22;35047;37.588;-122.048;2023-06-10T00:32:36;33.40;40.20
49222;DHT22;35047;37.588;-122.048;2023-06-10T00:35:02;33.50;40.10
49222;DHT22;35047;37.588;-122.048;2023-06-10T00:37:28;33.70;39.70
49222;DHT22;35047;37.588;-122.048;2023-06-10T00:39:55;33.70;39.20
49222;DHT22;35047;37.588;-122.048;2023-06-10T00:42:22;33.70;39.20
49222;DHT22;35047;37.588;-122.048;2023-06-10T00:44:51;33.60;39.20
49222;DHT22;35047;37.588;-122.048;2023-06-10T00:47:17;33.50;39.70
49222;DHT22;35047;37.588;-122.048;2023-06-10T00:49:46;33.60;39.70
49222;DHT22;35047;37.588;-122.048;2023-06-10T00:52:13;33.60;39.70
49222;DHT22;35047;37.588;-122.048;2023-06-10T00:54:39;33.50;39.70
49222;DHT22;35047;37.588;-122.048;2023-06-10T00:57:06;33.30;39.70
49222;DHT22;35047;37.588;-122.048;2023-06-10T00:59:32;33.40;40.30
49222;DHT22;35047;37.588;-122.048;2023-06-10T01:01:58;33.70;39.40
49222;DHT22;35047;37.588;-122.048;2023-06-10T01:04:24;33.60;39.40
49222;DHT22;35047;37.588;-122.048;2023-06-10T01:06:54;33.40;39.30
49222;DHT22;35047;37.588;-122.048;2023-06-10T01:14:59;33.30;39.50
49222;DHT22;35047;37.588;-122.048;2023-06-10T01:17:28;33.30;39.20
49222;DHT22;35047;37.588;-122.048;2023-06-10T01:20:14;33.30;39.80
49222;DHT22;35047;37.588;-122.048;2023-06-10T01:22:40;33.30;39.30
49222;DHT22;35047;37.588;-122.048;2023-06-10T01:25:06;33.10;39.20
49222;DHT22;35047;37.588;-122.048;2023-06-10T01:27:33;32.90;39.40
49222;DHT22;35047;37.588;-122.048;2023-06-10T01:30:10;32.80;39.80
49222;DHT22;35047;37.588;-122.048;2023-06-10T01:32:37;32.60;39.70
49222;DHT22;35047;37.588;-122.048;2023-06-10T01:35:06;32.20;40.30
49222;DHT22;35047;37.588;-122.048;2023-06-10T01:37:32;32.00;40.70
49222;DHT22;35047;37.588;-122.048;2023-06-10T01:39:59;31.90;40.60
49222;DHT22;35047;37.588;-122.048;2023-06-10T01:42:26;31.50;40.70
49222;DHT22;35047;37.588;-122.048;2023-06-10T01:44:52;31.30;41.50
49222;DHT22;35047;37.588;-122.048;2023-06-10T01:47:18;31.20;41.60
49222;DHT22;35047;37.588;-122.048;2023-06-10T01:49:45;30.90;41.90
49222;DHT22;35047;37.588;-122.048;2023-06-10T01:52:11;30.60;42.50
49222;DHT22;35047;37.588;-122.048;2023-06-10T01:54:37;30.60;42.30
49222;DHT22;35047;37.588;-122.048;2023-06-10T01:57:03;30.30;42.80
49222;DHT22;35047;37.588;-122.048;2023-06-10T01:59:29;30.10;43.20
49222;DHT22;35047;37.588;-122.048;2023-06-10T02:01:55;29.90;43.50
49222;DHT22;35047;37.588;-122.048;2023-06-10T02:04:22;29.80;43.70
49222;DHT22;35047;37.588;-122.048;2023-06-10T02:06:48;29.50;43.90
49222;DHT22;35047;37.588;-122.048;2023-06-10T02:09:16;29.20;44.20
49222;DHT22;35047;37.588;-122.048;2023-06-10T02:11:43;28.90;44.80
49222;DHT22;35047;37.588;-122.048;2023-06-10T02:14:10;28.70;45.40
49222;DHT22;35047;37.588;-122.048;2023-06-10T02:16:36;28.60;45.80
49222;DHT22;35047;37.588;-122.048;2023-06-10T02:19:03;28.40;45.80
49222;DHT22;35047;37.588;-122.048;2023-06-10T02:21:32;28.10;46.10
49222;DHT22;35047;37.588;-122.048;2023-06-10T02:24:00;27.90;46.40
49222;DHT22;35047;37.588;-122.048;2023-06-10T02:26:26;27.80;46.80
49222;DHT22;35047;37.588;-122.048;2023-06-10T02:28:52;27.80;46.60
49222;DHT22;35047;37.588;-122.048;2023-06-10T02:31:19;27.70;46.60
49222;DHT22;35047;37.588;-122.048;2023-06-10T02:33:45;27.60;47.10
49222;DHT22;35047;37.588;-122.048;2023-06-10T02:36:11;27.50;47.70
49222;DHT22;35047;37.588;-122.048;2023-06-10T02:38:41;27.50;47.80
49222;DHT22;35047;37.588;-122.048;2023-06-10T02:41:07;27.50;47.30
49222;DHT22;35047;37.588;-122.048;2023-06-10T02:43:34;27.60;47.40
49222;DHT22;35047;37.588;-122.048;2023-06-10T02:46:00;27.70;47.40
49222;DHT22;35047;37.588;-122.048;2023-06-10T02:48:26;27.60;47.70
49222;DHT22;35047;37.588;-122.048;2023-06-10T02:50:52;27.60;47.70
49222;DHT22;35047;37.588;-122.048;2023-06-10T02:53:19;27.40;47.80
49222;DHT22;35047;37.588;-122.048;2023-06-10T02:55:45;27.30;47.90
49222;DHT22;35047;37.588;-122.048;2023-06-10T02:58:11;27.30;48.00
49222;DHT22;35047;37.588;-122.048;2023-06-10T03:00:38;27.20;48.30
49222;DHT22;35047;37.588;-122.048;2023-06-10T03:03:06;27.00;48.90
49222;DHT22;35047;37.588;-122.048;2023-06-10T03:05:32;26.80;48.90
49222;DHT22;35047;37.588;-122.048;2023-06-10T03:07:58;26.40;50.00
49222;DHT22;35047;37.588;-122.048;2023-06-10T03:10:24;26.10;50.60
49222;DHT22;35047;37.588;-122.048;2023-06-10T03:12:50;25.80;51.00
49222;DHT22;35047;37.588;-122.048;2023-06-10T03:15:16;25.60;51.20
49222;DHT22;35047;37.588;-122.048;2023-06-10T03:17:43;25.30;51.70
49222;DHT22;35047;37.588;-122.048;2023-06-10T03:20:09;25.10;51.80
49222;DHT22;35047;37.588;-122.048;2023-06-10T03:22:35;25.00;52.30
49222;DHT22;35047;37.588;-122.048;2023-06-10T03:25:04;25.00;52.60
49222;DHT22;35047;37.588;-122.048;2023-06-10T03:27:30;24.90;52.90
49222;DHT22;35047;37.588;-122.048;2023-06-10T03:29:59;24.90;53.10
49222;DHT22;35047;37.588;-122.048;2023-06-10T03:32:25;24.70;53.40
49222;DHT22;35047;37.588;-122.048;2023-06-10T03:34:51;24.70;53.60
49222;DHT22;35047;37.588;-122.048;2023-06-10T03:37:22;24.90;53.50
49222;DHT22;35047;37.588;-122.048;2023-06-10T03:39:48;25.00;53.00
49222;DHT22;35047;37.588;-122.048;2023-06-10T03:42:14;25.00;52.90
49222;DHT22;35047;37.588;-122.048;2023-06-10T03:44:41;25.00;53.00
49222;DHT22;35047;37.588;-122.048;2023-06-10T03:47:07;25.10;52.90
49222;DHT22;35047;37.588;-122.048;2023-06-10T03:49:33;25.10;52.70
49222;DHT22;35047;37.588;-122.048;2023-06-10T03:51:59;25.00;53.10
49222;DHT22;35047;37.588;-122.048;2023-06-10T03:54:25;25.10;53.00
49222;DHT22;35047;37.588;-122.048;2023-06-10T03:56:51;25.10;52.70
49222;DHT22;35047;37.588;-122.048;2023-06-10T03:59:17;25.10;52.90
49222;DHT22;35047;37.588;-122.048;2023-06-10T04:01:43;24.90;53.10
49222;DHT22;35047;37.588;-122.048;2023-06-10T04:04:11;24.70;53.40
49222;DHT22;35047;37.588;-122.048;2023-06-10T04:06:38;24.60;53.90
49222;DHT22;35047;37.588;-122.048;2023-06-10T04:09:04;24.40;54.20
49222;DHT22;35047;37.588;-122.048;2023-06-10T04:11:30;24.30;54.50
49222;DHT22;35047;37.588;-122.048;2023-06-10T04:13:57;24.10;54.80
49222;DHT22;35047;37.588;-122.048;2023-06-10T04:16:24;23.90;55.20
49222;DHT22;35047;37.588;-122.048;2023-06-10T04:18:50;23.80;55.40
49222;DHT22;35047;37.588;-122.048;2023-06-10T04:21:16;23.70;56.00
49222;DHT22;35047;37.588;-122.048;2023-06-10T04:23:43;23.80;56.10
49222;DHT22;35047;37.588;-122.048;2023-06-10T04:26:09;23.90;55.90
49222;DHT22;35047;37.588;-122.048;2023-06-10T04:28:38;24.10;55.50
49222;DHT22;35047;37.588;-122.048;2023-06-10T04:31:04;24.30;55.30
49222;DHT22;35047;37.588;-122.048;2023-06-10T04:33:30;24.30;55.20
49222;DHT22;35047;37.588;-122.048;2023-06-10T04:35:57;24.50;55.10
49222;DHT22;35047;37.588;-122.048;2023-06-10T04:38:23;24.60;54.70
49222;DHT22;35047;37.588;-122.048;2023-06-10T04:40:49;24.70;54.90
49222;DHT22;35047;37.588;-122.048;2023-06-10T04:43:15;24.90;54.70
49222;DHT22;35047;37.588;-122.048;2023-06-10T04:45:41;25.00;54.50
49222;DHT22;35047;37.588;-122.048;2023-06-10T04:48:11;25.20;54.10
49222;DHT22;35047;37.588;-122.048;2023-06-10T04:50:37;25.20;53.60
49222;DHT22;35047;37.588;-122.048;2023-06-10T04:53:04;25.00;53.90
49222;DHT22;35047;37.588;-122.048;2023-06-10T04:55:31;24.70;54.40
49222;DHT22;35047;37.588;-122.048;2023-06-10T04:57:59;24.60;54.60
49222;DHT22;35047;37.588;-122.048;2023-06-10T05:00:25;24.30;55.30
49222;DHT22;35047;37.588;-122.048;2023-06-10T05:02:51;24.10;55.00
49222;DHT22;35047;37.588;-122.048;2023-06-10T05:05:17;23.90;55.40
49222;DHT22;35047;37.588;-122.048;2023-06-10T05:07:43;23.80;56.00
49222;DHT22;35047;37.588;-122.048;2023-06-10T05:10:10;23.60;56.00
49222;DHT22;35047;37.588;-122.048;2023-06-10T05:12:38;23.40;56.60
49222;DHT22;35047;37.588;-122.048;2023-06-10T05:15:05;23.20;57.00
49222;DHT22;35047;37.588;-122.048;2023-06-10T05:17:31;23.10;57.50
49222;DHT22;35047;37.588;-122.048;2023-06-10T05:19:57;23.00;57.90
49222;DHT22;35047;37.588;-122.048;2023-06-10T05:22:23;22.70;58.50
49222;DHT22;35047;37.588;-122.048;2023-06-10T05:24:50;22.60;59.00
49222;DHT22;35047;37.588;-122.048;2023-06-10T05:27:16;22.50;59.50
49222;DHT22;35047;37.588;-122.048;2023-06-10T05:29:43;22.40;59.80
49222;DHT22;35047;37.588;-122.048;2023-06-10T05:32:09;22.20;60.10
49222;DHT22;35047;37.588;-122.048;2023-06-10T05:34:35;22.10;60.20
49222;DHT22;35047;37.588;-122.048;2023-06-10T05:37:01;22.00;60.60
49222;DHT22;35047;37.588;-122.048;2023-06-10T05:39:27;22.00;60.80
49222;DHT22;35047;37.588;-122.048;2023-06-10T05:41:53;21.90;61.00
49222;DHT22;35047;37.588;-122.048;2023-06-10T05:44:19;21.80;61.40
49222;DHT22;35047;37.588;-122.048;2023-06-10T05:46:45;21.70;61.60
49222;DHT22;35047;37.588;-122.048;2023-06-10T05:49:11;21.70;62.10
49222;DHT22;35047;37.588;-122.048;2023-06-10T05:51:38;21.60;62.40
49222;DHT22;35047;37.588;-122.048;2023-06-10T05:54:05;21.60;62.70
49222;DHT22;35047;37.588;-122.048;2023-06-10T05:56:31;21.60;62.90
49222;DHT22;35047;37.588;-122.048;2023-06-10T05:58:57;21.50;63.10
49222;DHT22;35047;37.588;-122.048;2023-06-10T06:01:23;21.50;63.10
49222;DHT22;35047;37.588;-122.048;2023-06-10T06:03:49;21.50;62.60
49222;DHT22;35047;37.588;-122.048;2023-06-10T06:06:15;21.50;62.60
49222;DHT22;35047;37.588;-122.048;2023-06-10T06:08:41;21.40;62.60
49222;DHT22;35047;37.588;-122.048;2023-06-10T06:11:07;21.40;62.90
49222;DHT22;35047;37.588;-122.048;2023-06-10T06:13:33;21.30;63.20
49222;DHT22;35047;37.588;-122.048;2023-06-10T06:16:00;21.30;63.20
49222;DHT22;35047;37.588;-122.048;2023-06-10T06:18:26;21.20;63.20
49222;DHT22;35047;37.588;-122.048;2023-06-10T06:20:52;21.10;63.20
49222;DHT22;35047;37.588;-122.048;2023-06-10T06:23:18;21.10;63.80
49222;DHT22;35047;37.588;-122.048;2023-06-10T06:25:44;21.00;64.00
49222;DHT22;35047;37.588;-122.048;2023-06-10T06:28:10;21.00;64.20
49222;DHT22;35047;37.588;-122.048;2023-06-10T06:30:36;21.00;64.40
49222;DHT22;35047;37.588;-122.048;2023-06-10T06:33:02;21.00;64.10
49222;DHT22;35047;37.588;-122.048;2023-06-10T06:35:32;21.00;64.50
49222;DHT22;35047;37.588;-122.048;2023-06-10T06:37:59;21.00;64.50
49222;DHT22;35047;37.588;-122.048;2023-06-10T06:40:25;21.00;64.60
49222;DHT22;35047;37.588;-122.048;2023-06-10T06:42:51;21.00;64.70
49222;DHT22;35047;37.588;-122.048;2023-06-10T06:45:18;21.10;64.40
49222;DHT22;35047;37.588;-122.048;2023-06-10T06:47:44;21.00;64.50
49222;DHT22;35047;37.588;-122.048;2023-06-10T06:50:10;21.00;64.60
49222;DHT22;35047;37.588;-122.048;2023-06-10T06:52:36;21.00;64.50
49222;DHT22;35047;37.588;-122.048;2023-06-10T06:55:02;21.00;64.70
49222;DHT22;35047;37.588;-122.048;2023-06-10T06:57:28;21.00;64.60
49222;DHT22;35047;37.588;-122.048;2023-06-10T06:59:55;21.00;64.50
49222;DHT22;35047;37.588;-122.048;2023-06-10T07:02:21;21.00;64.30
49222;DHT22;35047;37.588;-122.048;2023-06-10T07:04:50;20.90;64.60
49222;DHT22;35047;37.588;-122.048;2023-06-10T07:07:16;20.90;64.70
49222;DHT22;35047;37.588;-122.048;2023-06-10T07:09:42;21.00;64.50
49222;DHT22;35047;37.588;-122.048;2023-06-10T07:12:08;21.00;64.40
49222;DHT22;35047;37.588;-122.048;2023-06-10T07:14:34;21.00;64.50
49222;DHT22;35047;37.588;-122.048;2023-06-10T07:17:00;21.00;64.20
49222;DHT22;35047;37.588;-122.048;2023-06-10T07:19:26;21.10;64.40
49222;DHT22;35047;37.588;-122.048;2023-06-10T07:21:52;21.10;64.30
49222;DHT22;35047;37.588;-122.048;2023-06-10T07:24:19;21.10;64.20
49222;DHT22;35047;37.588;-122.048;2023-06-10T07:26:46;21.20;64.10
49222;DHT22;35047;37.588;-122.048;2023-06-10T07:29:12;21.20;64.10
49222;DHT22;35047;37.588;-122.048;2023-06-10T07:31:38;21.20;64.10
49222;DHT22;35047;37.588;-122.048;2023-06-10T07:34:04;21.30;63.90
49222;DHT22;35047;37.588;-122.048;2023-06-10T07:36:30;21.30;63.80
49222;DHT22;35047;37.588;-122.048;2023-06-10T07:38:57;21.20;63.80
49222;DHT22;35047;37.588;-122.048;2023-06-10T07:41:23;21.20;63.80
49222;DHT22;35047;37.588;-122.048;2023-06-10T07:43:53;21.30;63.70
49222;DHT22;35047;37.588;-122.048;2023-06-10T07:46:22;21.20;63.70
49222;DHT22;35047;37.588;-122.048;2023-06-10T07:48:49;21.20;63.70
49222;DHT22;35047;37.588;-122.048;2023-06-10T07:51:15;21.20;63.90
49222;DHT22;35047;37.588;-122.048;2023-06-10T07:53:42;21.20;64.10
49222;DHT22;35047;37.588;-122.048;2023-06-10T07:56:08;21.20;64.10
49222;DHT22;35047;37.588;-122.048;2023-06-10T07:58:34;21.20;64.10
49222;DHT22;35047;37.588;-122.048;2023-06-10T08:01:00;21.30;64.20
49222;DHT22;35047;37.588;-122.048;2023-06-10T08:03:27;21.30;63.80
49222;DHT22;35047;37.588;-122.048;2023-06-10T08:05:53;21.30;64.10
49222;DHT22;35047;37.588;-122.048;2023-06-10T08:08:19;21.30;64.10
49222;DHT22;35047;37.588;-122.048;2023-06-10T08:10:45;21.20;64.10
49222;DHT22;35047;37.588;-122.048;2023-06-10T08:13:11;21.20;64.50
49222;DHT22;35047;37.588;-122.048;2023-06-10T08:15:37;21.10;64.60
49222;DHT22;35047;37.588;-122.048;2023-06-10T08:18:03;21.10;64.70
49222;DHT22;35047;37.588;-122.048;2023-06-10T08:20:29;21.00;65.00
49222;DHT22;35047;37.588;-122.048;2023-06-10T08:22:56;21.10;64.90
49222;DHT22;35047;37.588;-122.048;2023-06-10T08:25:23;21.10;65.10
49222;DHT22;35047;37.588;-122.048;2023-06-10T08:27:49;21.10;65.20
49222;DHT22;35047;37.588;-122.048;2023-06-10T08:30:16;21.20;65.00
49222;DHT22;35047;37.588;-122.048;2023-06-10T08:32:43;21.20;65.10
49222;DHT22;35047;37.588;-122.048;2023-06-10T08:35:09;21.30;64.90
49222;DHT22;35047;37.588;-122.048;2023-06-10T08:37:36;21.30;64.90
49222;DHT22;35047;37.588;-122.048;2023-06-10T08:40:02;21.30;64.90
49222;DHT22;35047;37.588;-122.048;2023-06-10T08:42:33;21.30;64.80
49222;DHT22;35047;37.588;-122.048;2023-06-10T08:45:02;21.20;64.80
49222;DHT22;35047;37.588;-122.048;2023-06-10T08:47:29;21.30;65.00
49222;DHT22;35047;37.588;-122.048;2023-06-10T08:49:56;21.20;65.20
49222;DHT22;35047;37.588;-122.048;2023-06-10T08:52:29;21.30;65.10
49222;DHT22;35047;37.588;-122.048;2023-06-10T08:55:02;21.30;65.30
49222;DHT22;35047;37.588;-122.048;2023-06-10T08:57:29;21.30;65.40
49222;DHT22;35047;37.588;-122.048;2023-06-10T08:59:56;21.30;65.30
49222;DHT22;35047;37.588;-122.048;2023-06-10T09:02:23;21.20;65.60
49222;DHT22;35047;37.588;-122.048;2023-06-10T09:04:49;21.20;65.80
49222;DHT22;35047;37.588;-122.048;2023-06-10T09:07:16;21.10;65.80
49222;DHT22;35047;37.588;-122.048;2023-06-10T09:09:42;21.10;66.10
49222;DHT22;35047;37.588;-122.048;2023-06-10T09:12:10;21.00;66.10
49222;DHT22;35047;37.588;-122.048;2023-06-10T09:14:36;21.10;66.00
49222;DHT22;35047;37.588;-122.048;2023-06-10T09:17:03;21.10;66.10
49222;DHT22;35047;37.588;-122.048;2023-06-10T09:19:29;21.00;66.00
49222;DHT22;35047;37.588;-122.048;2023-06-10T09:21:55;21.00;66.30
49222;DHT22;35047;37.588;-122.048;2023-06-10T09:24:24;21.00;66.20
49222;DHT22;35047;37.588;-122.048;2023-06-10T09:27:01;21.00;66.10
49222;DHT22;35047;37.588;-122.048;2023-06-10T09:29:28;20.90;66.90
49222;DHT22;35047;37.588;-122.048;2023-06-10T09:31:54;20.90;66.20
49222;DHT22;35047;37.588;-122.048;2023-06-10T09:34:25;20.90;66.30
49222;DHT22;35047;37.588;-122.048;2023-06-10T09:36:52;20.90;66.10
49222;DHT22;35047;37.588;-122.048;2023-06-10T09:39:19;20.90;66.30
49222;DHT22;35047;37.588;-122.048;2023-06-10T09:41:45;20.80;66.20
49222;DHT22;35047;37.588;-122.048;2023-06-10T09:44:21;20.80;66.10
49222;DHT22;35047;37.588;-122.048;2023-06-10T09:46:48;20.70;66.30
49222;DHT22;35047;37.588;-122.048;2023-06-10T09:49:15;20.70;66.50
49222;DHT22;35047;37.588;-122.048;2023-06-10T09:51:51;20.70;66.00
49222;DHT22;35047;37.588;-122.048;2023-06-10T09:54:17;20.70;66.80
49222;DHT22;35047;37.588;-122.048;2023-06-10T09:56:46;20.70;66.80
49222;DHT22;35047;37.588;-122.048;2023-06-10T09:59:12;20.70;66.80
49222;DHT22;35047;37.588;-122.048;2023-06-10T10:01:39;20.70;66.70
49222;DHT22;35047;37.588;-122.048;2023-06-10T10:04:06;20.70;66.90
49222;DHT22;35047;37.588;-122.048;2023-06-10T10:06:32;20.70;66.80
49222;DHT22;35047;37.588;-122.048;2023-06-10T10:08:59;20.60;67.10
49222;DHT22;35047;37.588;-122.048;2023-06-10T10:11:25;20.60;67.30
49222;DHT22;35047;37.588;-122.048;2023-06-10T10:13:54;20.60;67.30
49222;DHT22;35047;37.588;-122.048;2023-06-10T10:16:21;20.60;67.10
49222;DHT22;35047;37.588;-122.048;2023-06-10T10:18:52;20.60;66.90
49222;DHT22;35047;37.588;-122.048;2023-06-10T10:21:22;20.60;66.80
49222;DHT22;35047;37.588;-122.048;2023-06-10T10:24:01;20.60;66.80
49222;DHT22;35047;37.588;-122.048;2023-06-10T10:26:28;20.60;66.70
49222;DHT22;35047;37.588;-122.048;2023-06-10T10:29:38;20.60;66.50
49222;DHT22;35047;37.588;-122.048;2023-06-10T10:31:45;20.60;66.80
49222;DHT22;35047;37.588;-122.048;2023-06-10T10:34:13;20.60;66.90
49222;DHT22;35047;37.588;-122.048;2023-06-10T10:36:42;20.60;66.80
49222;DHT22;35047;37.588;-122.048;2023-06-10T10:39:08;20.60;66.80
49222;DHT22;35047;37.588;-122.048;2023-06-10T10:41:34;20.50;66.80
49222;DHT22;35047;37.588;-122.048;2023-06-10T10:44:02;20.50;67.10
49222;DHT22;35047;37.588;-122.048;2023-06-10T10:46:42;20.40;67.10
49222;DHT22;35047;37.588;-122.048;2023-06-10T10:49:10;20.40;67.10
49222;DHT22;35047;37.588;-122.048;2023-06-10T10:51:36;20.40;67.10
49222;DHT22;35047;37.588;-122.048;2023-06-10T10:54:12;20.40;67.10
49222;DHT22;35047;37.588;-122.048;2023-06-10T10:56:39;20.40;67.00
49222;DHT22;35047;37.588;-122.048;2023-06-10T10:59:06;20.50;66.90
49222;DHT22;35047;37.588;-122.048;2023-06-10T11:01:41;20.50;67.10
49222;DHT22;35047;37.588;-122.048;2023-06-10T11:04:11;20.50;67.00
49222;DHT22;35047;37.588;-122.048;2023-06-10T11:06:37;20.40;67.00
49222;DHT22;35047;37.588;-122.048;2023-06-10T11:09:37;20.50;66.90
49222;DHT22;35047;37.588;-122.048;2023-06-10T11:11:59;20.50;66.90
49222;DHT22;35047;37.588;-122.048;2023-06-10T11:14:29;20.40;67.10
49222;DHT22;35047;37.588;-122.048;2023-06-10T11:16:59;20.50;66.90
49222;DHT22;35047;37.588;-122.048;2023-06-10T11:19:32;20.50;66.90
49222;DHT22;35047;37.588;-122.048;2023-06-10T11:22:00;20.50;66.80
49222;DHT22;35047;37.588;-122.048;2023-06-10T11:24:26;20.50;67.00
49222;DHT22;35047;37.588;-122.048;2023-06-10T11:26:52;20.60;66.90
49222;DHT22;35047;37.588;-122.048;2023-06-10T11:29:18;20.60;66.70
49222;DHT22;35047;37.588;-122.048;2023-06-10T11:31:49;20.50;66.60
49222;DHT22;35047;37.588;-122.048;2023-06-10T11:34:25;20.50;66.70
49222;DHT22;35047;37.588;-122.048;2023-06-10T11:36:53;20.50;66.70
49222;DHT22;35047;37.588;-122.048;2023-06-10T11:39:20;20.40;66.90
49222;DHT22;35047;37.588;-122.048;2023-06-10T11:41:46;20.40;67.00
49222;DHT22;35047;37.588;-122.048;2023-06-10T11:44:13;20.40;66.80
49222;DHT22;35047;37.588;-122.048;2023-06-10T11:46:39;20.50;66.40
49222;DHT22;35047;37.588;-122.048;2023-06-10T11:49:08;20.40;66.80
49222;DHT22;35047;37.588;-122.048;2023-06-10T11:51:35;20.50;66.60
49222;DHT22;35047;37.588;-122.048;2023-06-10T11:54:02;20.40;66.60
49222;DHT22;35047;37.588;-122.048;2023-06-10T11:56:29;20.30;66.90
49222;DHT22;35047;37.588;-122.048;2023-06-10T11:58:59;20.40;67.10
49222;DHT22;35047;37.588;-122.048;2023-06-10T12:01:30;20.30;67.80
49222;DHT22;35047;37.588;-122.048;2023-06-10T12:04:03;20.30;67.00
49222;DHT22;35047;37.588;-122.048;2023-06-10T12:06:49;20.40;66.80
49222;DHT22;35047;37.588;-122.048;2023-06-10T12:11:53;20.30;67.00
49222;DHT22;35047;37.588;-122.048;2023-06-10T12:17:04;20.40;67.00
49222;DHT22;35047;37.588;-122.048;2023-06-10T12:19:30;20.30;66.70
49222;DHT22;35047;37.588;-122.048;2023-06-10T12:22:00;20.40;66.60
49222;DHT22;35047;37.588;-122.048;2023-06-10T12:24:26;20.40;66.60
49222;DHT22;35047;37.588;-122.048;2023-06-10T12:26:53;20.40;66.60
49222;DHT22;35047;37.588;-122.048;2023-06-10T12:29:22;20.40;66.60
49222;DHT22;35047;37.588;-122.048;2023-06-10T12:34:23;20.50;66.50
49222;DHT22;35047;37.588;-122.048;2023-06-10T12:36:53;20.50;66.40
49222;DHT22;35047;37.588;-122.048;2023-06-10T12:39:19;20.40;66.40
49222;DHT22;35047;37.588;-122.048;2023-06-10T12:41:48;20.40;66.40
49222;DHT22;35047;37.588;-122.048;2023-06-10T12:44:15;20.40;66.60
49222;DHT22;35047;37.588;-122.048;2023-06-10T12:46:42;20.40;66.90
49222;DHT22;35047;37.588;-122.048;2023-06-10T12:49:08;20.40;66.60
49222;DHT22;35047;37.588;-122.048;2023-06-10T12:51:34;20.40;66.80
49222;DHT22;35047;37.588;-122.048;2023-06-10T12:54:02;20.40;66.80
49222;DHT22;35047;37.588;-122.048;2023-06-10T12:56:28;20.30;66.60
49222;DHT22;35047;37.588;-122.048;2023-06-10T12:58:54;20.30;66.70
49222;DHT22;35047;37.588;-122.048;2023-06-10T13:01:20;20.20;66.80
49222;DHT22;35047;37.588;-122.048;2023-06-10T13:03:46;20.20;67.20
49222;DHT22;35047;37.588;-122.048;2023-06-10T13:06:13;20.20;67.10
49222;DHT22;35047;37.588;-122.048;2023-06-10T13:08:40;20.20;67.20
49222;DHT22;35047;37.588;-122.048;2023-06-10T13:11:06;20.20;67.20
49222;DHT22;35047;37.588;-122.048;2023-06-10T13:13:32;20.20;67.20
49222;DHT22;35047;37.588;-122.048;2023-06-10T13:15:58;20.30;66.90
49222;DHT22;35047;37.588;-122.048;2023-06-10T13:18:25;20.30;66.60
49222;DHT22;35047;37.588;-122.048;2023-06-10T13:20:51;20.30;66.60
49222;DHT22;35047;37.588;-122.048;2023-06-10T13:23:17;20.30;66.40
49222;DHT22;35047;37.588;-122.048;2023-06-10T13:25:43;20.30;66.50
49222;DHT22;35047;37.588;-122.048;2023-06-10T13:28:10;20.30;66.50
49222;DHT22;35047;37.588;-122.048;2023-06-10T13:30:37;20.30;66.60
49222;DHT22;35047;37.588;-122.048;2023-06-10T13:33:03;20.30;66.20
49222;DHT22;35047;37.588;-122.048;2023-06-10T13:35:29;20.30;66.10
49222;DHT22;35047;37.588;-122.048;2023-06-10T13:37:55;20.30;65.90
49222;DHT22;35047;37.588;-122.048;2023-06-10T13:40:21;20.30;65.80
49222;DHT22;35047;37.588;-122.048;2023-06-10T13:42:47;20.30;65.80
49222;DHT22;35047;37.588;-122.048;2023-06-10T13:45:16;20.40;66.40
49222;DHT22;35047;37.588;-122.048;2023-06-10T13:47:42;20.30;66.50
49222;DHT22;35047;37.588;-122.048;2023-06-10T13:50:09;20.20;66.90
49222;DHT22;35047;37.588;-122.048;2023-06-10T13:52:35;20.30;67.00
49222;DHT22;35047;37.588;-122.048;2023-06-10T13:55:02;20.30;66.80
49222;DHT22;35047;37.588;-122.048;2023-06-10T13:57:28;20.40;66.80
49222;DHT22;35047;37.588;-122.048;2023-06-10T13:59:54;20.40;66.60
49222;DHT22;35047;37.588;-122.048;2023-06-10T14:02:21;20.40;66.30
49222;DHT22;35047;37.588;-122.048;2023-06-10T14:04:48;20.40;66.40
49222;DHT22;35047;37.588;-122.048;2023-06-10T14:07:14;20.40;66.60
49222;DHT22;35047;37.588;-122.048;2023-06-10T14:09:41;20.50;66.00
49222;DHT22;35047;37.588;-122.048;2023-06-10T14:12:07;20.60;65.20
49222;DHT22;35047;37.588;-122.048;2023-06-10T14:14:33;20.60;64.80
49222;DHT22;35047;37.588;-122.048;2023-06-10T14:16:59;20.50;65.20
49222;DHT22;35047;37.588;-122.048;2023-06-10T14:19:25;20.60;65.30
49222;DHT22;35047;37.588;-122.048;2023-06-10T14:21:51;20.60;65.00
49222;DHT22;35047;37.588;-122.048;2023-06-10T14:24:19;20.60;65.80
49222;DHT22;35047;37.588;-122.048;2023-06-10T14:26:45;20.70;65.50
49222;DHT22;35047;37.588;-122.048;2023-06-10T14:29:11;20.70;65.40
49222;DHT22;35047;37.588;-122.048;2023-06-10T14:31:40;20.70;65.40
49222;DHT22;35047;37.588;-122.048;2023-06-10T14:34:06;20.70;65.70
49222;DHT22;35047;37.588;-122.048;2023-06-10T14:36:33;20.70;65.20
49222;DHT22;35047;37.588;-122.048;2023-06-10T14:38:59;20.70;65.40
49222;DHT22;35047;37.588;-122.048;2023-06-10T14:41:25;20.70;65.90
49222;DHT22;35047;37.588;-122.048;2023-06-10T14:43:52;20.70;65.70
49222;DHT22;35047;37.588;-122.048;2023-06-10T14:46:18;20.70;65.90
49222;DHT22;35047;37.588;-122.048;2023-06-10T14:48:46;20.70;66.40
49222;DHT22;35047;37.588;-122.048;2023-06-10T14:51:12;20.80;65.30
49222;DHT22;35047;37.588;-122.048;2023-06-10T14:53:38;20.80;65.10
49222;DHT22;35047;37.588;-122.048;2023-06-10T14:56:04;20.80;65.10
49222;DHT22;35047;37.588;-122.048;2023-06-10T14:58:30;20.90;65.20
49222;DHT22;35047;37.588;-122.048;2023-06-10T15:00:57;20.90;65.40